Time;durP1;ratioP1;P1;durP2;ratioP2;P2;SDS_P1;SDS_P2;PMS_P1;PMS_P2;Temp;Humidity;BMP_temperature;BMP_pressure;BME280_temperature;BME280_humidity;BME280_pressure;Samples;Min_cycle;Max_cycle;Signal;HPM_P1;HPM_P2
2024/03/15 00:03:34;;;;;;;8.10;7.40;;;12.60;37.60;;;;;;10368760;28;20240;-72
2024/03/15 00:08:39;;;;;;;6.87;6.27;;;12.50;37.60;;;;;;10375959;28;20615;-72
2024/03/15 00:13:44;;;;;;;7.00;6.40;;;12.40;37.60;;;;;;10380553;28;20271;-72
2024/03/15 00:18:48;;;;;;;7.90;7.30;;;12.40;37.60;;;;;;10386300;28;20690;-72
2024/03/15 00:23:51;;;;;;;8.20;7.50;;;12.30;37.60;;;;;;10382401;28;20221;-72
2024/03/15 00:28:55;;;;;;;8.73;7.83;;;12.30;37.60;;;;;;10363899;28;20763;-72
2024/03/15 00:33:58;;;;;;;7.70;7.00;;;12.20;37.80;;;;;;10345330;28;20226;-72
2024/03/15 00:39:01;;;;;;;8.13;7.43;;;12.10;37.90;;;;;;10347734;28;20245;-72
2024/03/15 00:44:06;;;;;;;7.67;6.97;;;11.90;38.00;;;;;;10378357;28;20225;-72
2024/03/15 00:49:11;;;;;;;11.13;10.00;;;11.80;38.20;;;;;;10381864;28;20254;-72
2024/03/15 00:54:14;;;;;;;13.13;12.03;;;11.70;38.20;;;;;;10367208;28;20234;-72
2024/03/15 00:59:18;;;;;;;8.40;7.60;;;11.50;38.50;;;;;;10380150;28;20237;-72
2024/03/15 01:04:21;;;;;;;8.47;7.67;;;11.30;38.80;;;;;;10381579;28;20233;-72
2024/03/15 01:09:24;;;;;;;7.80;6.70;;;11.20;38.80;;;;;;10383220;28;20252;-72
2024/03/15 01:14:28;;;;;;;8.17;6.83;;;11.10;39.50;;;;;;10366231;28;20233;-72
2024/03/15 01:19:33;;;;;;;7.90;7.10;;;11.00;38.80;;;;;;10384697;28;20224;-72
2024/03/15 01:24:36;;;;;;;6.07;5.47;;;10.90;39.00;;;;;;10382722;28;20230;-72
2024/03/15 01:29:40;;;;;;;7.53;6.20;;;10.90;39.10;;;;;;10391469;28;20226;-72
2024/03/15 01:34:43;;;;;;;6.23;5.73;;;11.00;39.20;;;;;;10384464;28;20228;-72
2024/03/15 01:39:47;;;;;;;6.37;5.77;;;11.00;39.20;;;;;;10389461;28;20305;-72
2024/03/15 01:44:51;;;;;;;5.77;5.27;;;11.10;39.10;;;;;;10372876;28;20221;-72
2024/03/15 01:49:55;;;;;;;6.30;5.60;;;11.10;39.10;;;;;;10386662;28;20706;-72
2024/03/15 01:54:58;;;;;;;6.90;6.30;;;11.10;39.00;;;;;;10389588;28;20596;-72
2024/03/15 02:00:02;;;;;;;5.90;5.37;;;11.10;39.00;;;;;;10393484;28;20221;-72
2024/03/15 02:05:06;;;;;;;6.43;5.83;;;11.10;38.90;;;;;;10384251;28;20225;-72
2024/03/15 02:10:12;;;;;;;6.47;5.87;;;11.10;38.90;;;;;;10374297;28;20321;-72
2024/03/15 02:15:16;;;;;;;9.43;7.97;;;11.10;39.30;;;;;;10382156;28;20240;-72
2024/03/15 02:20:20;;;;;;;13.47;10.40;;;11.10;38.90;;;;;;10387664;28;20226;-72
2024/03/15 02:25:23;;;;;;;7.23;6.53;;;11.10;38.90;;;;;;10385160;28;20699;-72
2024/03/15 02:30:27;;;;;;;9.90;8.70;;;11.10;38.90;;;;;;10376606;28;20296;-72
2024/03/15 02:35:31;;;;;;;6.20;5.60;;;11.00;38.90;;;;;;10382355;28;20316;-72
2024/03/15 02:40:35;;;;;;;5.97;5.47;;;11.00;38.80;;;;;;10379747;28;20249;-72
2024/03/15 02:45:38;;;;;;;13.73;11.27;;;11.00;38.90;;;;;;10385512;28;20246;-72
2024/03/15 02:50:42;;;;;;;6.97;6.37;;;11.00;39.00;;;;;;10386739;28;20883;-72
2024/03/15 02:55:45;;;;;;;6.17;5.57;;;11.00;39.00;;;;;;10386022;28;20236;-72
2024/03/15 03:00:48;;;;;;;6.13;5.63;;;11.00;39.00;;;;;;10383903;28;20235;-72
2024/03/15 03:05:52;;;;;;;8.73;7.83;;;10.90;39.00;;;;;;10392293;28;20327;-72
2024/03/15 03:10:59;;;;;;;11.30;9.50;;;10.90;39.80;;;;;;10386331;28;20230;-72
2024/03/15 03:16:02;;;;;;;7.20;6.50;;;10.90;39.00;;;;;;10389675;28;20636;-71
2024/03/15 03:21:05;;;;;;;5.63;5.13;;;10.80;39.00;;;;;;10374038;28;20628;-72
2024/03/15 03:26:10;;;;;;;6.60;6.00;;;10.80;39.00;;;;;;10382232;28;20320;-72
2024/03/15 03:31:13;;;;;;;5.67;5.17;;;10.80;39.00;;;;;;10389928;28;20236;-72
2024/03/15 03:36:16;;;;;;;5.13;4.63;;;10.80;39.10;;;;;;10384904;28;20234;-72
2024/03/15 03:41:20;;;;;;;5.33;4.83;;;10.70;39.20;;;;;;10384069;28;20230;-72
2024/03/15 03:46:25;;;;;;;5.10;4.70;;;10.70;39.20;;;;;;10384362;28;20316;-72
2024/03/15 03:51:28;;;;;;;5.27;4.87;;;10.70;39.30;;;;;;10372256;28;20683;-72
2024/03/15 03:56:31;;;;;;;4.67;4.33;;;10.60;39.20;;;;;;10371739;28;20310;-72
2024/03/15 04:01:34;;;;;;;5.40;4.90;;;10.70;39.40;;;;;;10382256;28;20782;-72
2024/03/15 04:06:38;;;;;;;5.17;4.67;;;10.60;39.30;;;;;;10380228;28;20355;-72
2024/03/15 04:11:41;;;;;;;4.97;4.57;;;10.60;39.40;;;;;;10384233;28;20226;-72
2024/03/15 04:16:44;;;;;;;6.07;5.40;;;10.60;39.40;;;;;;10380524;28;20221;-72
2024/03/15 04:21:48;;;;;;;5.80;5.20;;;10.60;39.40;;;;;;10387643;28;20309;-72
2024/03/15 04:26:52;;;;;;;5.90;5.30;;;10.60;39.40;;;;;;10385516;28;20221;-72
2024/03/15 04:31:55;;;;;;;5.17;4.67;;;10.60;39.40;;;;;;10384867;28;20234;-72
2024/03/15 04:36:59;;;;;;;4.90;4.40;;;10.60;39.40;;;;;;10387217;28;20241;-72
2024/03/15 04:42:03;;;;;;;4.40;4.00;;;10.50;40.10;;;;;;10384760;28;20222;-72
2024/03/15 04:47:07;;;;;;;4.20;3.83;;;10.50;39.60;;;;;;10378853;28;20233;-72
2024/03/15 04:52:11;;;;;;;5.40;4.70;;;10.50;39.60;;;;;;10367237;28;20707;-72
2024/03/15 04:57:16;;;;;;;20.03;14.27;;;10.50;39.50;;;;;;10383674;28;20242;-72
2024/03/15 05:02:19;;;;;;;9.97;7.37;;;10.50;39.50;;;;;;10381143;28;20770;-72
2024/03/15 05:07:22;;;;;;;5.20;4.77;;;10.50;39.50;;;;;;10378157;28;20237;-73
2024/03/15 05:12:26;;;;;;;4.10;3.70;;;10.40;39.60;;;;;;10378674;28;20305;-72
2024/03/15 05:17:29;;;;;;;7.33;5.77;;;10.40;39.70;;;;;;10373055;28;20386;-73
2024/03/15 05:22:32;;;;;;;13.20;7.87;;;10.40;40.00;;;;;;10368894;28;20245;-74
2024/03/15 05:27:36;;;;;;;9.83;6.97;;;10.40;40.00;;;;;;10372608;28;20660;-74
2024/03/15 05:32:39;;;;;;;4.57;4.17;;;10.40;40.00;;;;;;10372823;28;20230;-73
2024/03/15 05:37:42;;;;;;;4.17;3.77;;;10.30;40.10;;;;;;10376974;28;20249;-73
2024/03/15 05:42:46;;;;;;;3.80;3.50;;;10.30;40.20;;;;;;10381029;28;20259;-73
2024/03/15 05:47:50;;;;;;;5.23;4.73;;;10.30;40.20;;;;;;10380728;28;20229;-73
2024/03/15 05:52:53;;;;;;;5.10;4.60;;;10.30;40.20;;;;;;10377832;28;20229;-73
2024/03/15 05:57:57;;;;;;;5.10;4.60;;;10.30;40.10;;;;;;10372199;28;20233;-73
2024/03/15 06:03:05;;;;;;;9.10;8.30;;;10.30;40.20;;;;;;10377653;28;20615;-73
2024/03/15 06:08:10;;;;;;;9.20;8.40;;;10.30;40.20;;;;;;10370251;28;20257;-73
2024/03/15 06:13:13;;;;;;;13.17;11.97;;;10.20;40.10;;;;;;10383490;28;20836;-73
2024/03/15 06:18:17;;;;;;;7.87;7.07;;;10.30;40.20;;;;;;10369781;28;20230;-74
2024/03/15 06:23:20;;;;;;;8.73;7.93;;;10.30;40.20;;;;;;10384293;28;20708;-73
2024/03/15 06:28:25;;;;;;;6.23;5.73;;;10.30;40.20;;;;;;10386367;28;20233;-74
2024/03/15 06:33:33;;;;;;;5.80;5.30;;;10.30;40.20;;;;;;10378736;28;20303;-73
2024/03/15 06:38:51;;;;;;;5.53;5.03;;;10.30;40.20;;;;;;10387318;28;20237;-74
2024/03/15 06:43:59;;;;;;;6.13;4.73;;;10.30;40.20;;;;;;10385953;28;20229;-73
2024/03/15 06:49:12;;;;;;;4.57;3.90;;;10.30;40.20;;;;;;10382559;28;20226;-72
2024/03/15 06:54:15;;;;;;;4.83;4.23;;;10.30;40.20;;;;;;10390710;28;20276;-73
2024/03/15 06:59:19;;;;;;;4.13;3.77;;;10.40;40.60;;;;;;10374277;28;20234;-73
2024/03/15 07:04:22;;;;;;;4.30;3.90;;;10.40;40.80;;;;;;10371230;28;20667;-73
2024/03/15 07:09:26;;;;;;;5.47;4.20;;;10.50;40.90;;;;;;10381766;28;20238;-74
2024/03/15 07:14:29;;;;;;;5.63;4.40;;;10.60;41.50;;;;;;10371648;28;20299;-71
2024/03/15 07:19:33;;;;;;;7.97;3.70;;;10.60;41.50;;;;;;10367079;28;20261;-73
2024/03/15 07:24:36;;;;;;;6.13;4.00;;;10.80;41.80;;;;;;10380706;28;20230;-73
2024/03/15 07:29:41;;;;;;;4.63;3.73;;;10.90;42.00;;;;;;10381449;28;20230;-73
2024/03/15 07:34:44;;;;;;;6.03;4.03;;;11.00;42.20;;;;;;10368965;28;20596;-73
2024/03/15 07:39:48;;;;;;;4.40;4.10;;;11.20;42.50;;;;;;10382623;28;20317;-72
2024/03/15 07:44:54;;;;;;;3.43;3.20;;;11.30;42.60;;;;;;10371368;28;20783;-72
2024/03/15 07:49:58;;;;;;;4.67;3.70;;;11.40;42.60;;;;;;10380127;28;20307;-73
2024/03/15 07:55:03;;;;;;;4.27;3.53;;;11.50;42.80;;;;;;10376468;28;20240;-73
2024/03/15 08:00:09;;;;;;;3.93;3.43;;;11.60;43.00;;;;;;10383273;28;20244;-73
2024/03/15 08:05:15;;;;;;;3.27;3.07;;;11.80;43.40;;;;;;10366893;28;20767;-72
2024/03/15 08:10:20;;;;;;;3.53;3.23;;;12.00;43.70;;;;;;10378149;28;20238;-72
2024/03/15 08:15:29;;;;;;;3.57;3.10;;;12.20;43.80;;;;;;10381027;28;20237;-73
2024/03/15 08:20:33;;;;;;;3.27;2.90;;;12.50;44.00;;;;;;10383513;28;20729;-73
2024/03/15 08:25:37;;;;;;;2.70;2.50;;;12.80;43.80;;;;;;10366432;28;20232;-73
2024/03/15 08:30:43;;;;;;;3.63;2.70;;;13.10;43.70;;;;;;10376205;28;20295;-73
2024/03/15 08:35:47;;;;;;;3.80;3.03;;;13.40;43.20;;;;;;10381302;28;20251;-73
2024/03/15 08:40:50;;;;;;;2.57;2.37;;;13.70;43.20;;;;;;10360143;28;20222;-73
2024/03/15 08:45:54;;;;;;;2.83;2.60;;;13.90;42.70;;;;;;10379081;28;20272;-73
2024/03/15 08:50:57;;;;;;;2.83;2.37;;;14.10;42.60;;;;;;10364610;28;20225;-73
2024/03/15 08:56:01;;;;;;;4.00;2.87;;;14.30;42.40;;;;;;10378390;28;20233;-73
2024/03/15 09:01:05;;;;;;;4.00;2.53;;;14.60;42.50;;;;;;10376809;28;20218;-73
2024/03/15 09:06:09;;;;;;;3.33;2.60;;;14.90;42.20;;;;;;10368044;28;20897;-72
2024/03/15 09:11:13;;;;;;;2.67;2.47;;;15.20;42.10;;;;;;10368808;28;20965;-72
2024/03/15 09:16:17;;;;;;;2.87;2.43;;;15.50;41.80;;;;;;10370046;28;20238;-73
2024/03/15 09:21:21;;;;;;;2.67;2.47;;;15.90;41.80;;;;;;10366573;28;20222;-73
2024/03/15 09:26:24;;;;;;;3.10;2.33;;;16.20;41.60;;;;;;10376267;28;20728;-72
2024/03/15 09:31:28;;;;;;;2.60;2.40;;;16.50;40.60;;;;;;10374748;28;20313;-72
2024/03/15 09:36:52;;;;;;;2.50;2.30;;;16.80;40.40;;;;;;10374348;28;20220;-72
2024/03/15 09:41:55;;;;;;;5.90;2.63;;;17.00;40.40;;;;;;10381808;28;20230;-73
2024/03/15 09:46:59;;;;;;;2.50;2.30;;;17.20;39.60;;;;;;10387823;28;20221;-73
2024/03/15 09:52:03;;;;;;;4.30;2.30;;;17.30;39.70;;;;;;10339216;28;20226;-72
2024/03/15 09:57:06;;;;;;;2.40;2.10;;;17.50;38.90;;;;;;10371420;28;20236;-73
2024/03/15 10:02:10;;;;;;;3.17;2.60;;;17.60;38.90;;;;;;10380685;28;20357;-73
2024/03/15 10:07:14;;;;;;;2.50;2.30;;;17.70;38.90;;;;;;10370816;28;20651;-73
2024/03/15 10:12:18;;;;;;;2.53;2.10;;;17.80;38.20;;;;;;10385514;28;20960;-73
2024/03/15 10:17:21;;;;;;;3.30;2.50;;;17.90;38.20;;;;;;10384826;28;20237;-73
2024/03/15 10:22:26;;;;;;;2.57;2.20;;;18.00;38.20;;;;;;10371173;28;20305;-72
2024/03/15 10:27:29;;;;;;;2.67;2.20;;;18.10;38.00;;;;;;10365892;28;20332;-73
2024/03/15 10:32:32;;;;;;;2.90;2.10;;;18.20;37.70;;;;;;10389666;28;20237;-73
2024/03/15 10:37:35;;;;;;;2.20;2.10;;;18.30;37.70;;;;;;10368145;28;20253;-73
2024/03/15 10:42:39;;;;;;;2.30;2.10;;;18.50;37.60;;;;;;10364893;28;20229;-73
2024/03/15 10:47:43;;;;;;;2.90;2.40;;;18.60;37.20;;;;;;10344515;28;20588;-73
2024/03/15 10:52:46;;;;;;;2.63;2.30;;;18.70;37.60;;;;;;10340961;28;20368;-73
2024/03/15 10:57:50;;;;;;;3.50;2.23;;;18.90;37.40;;;;;;10337339;28;20226;-73
2024/03/15 11:02:54;;;;;;;3.73;2.40;;;19.10;36.90;;;;;;10341879;28;20218;-73
2024/03/15 11:08:02;;;;;;;3.07;2.40;;;19.30;36.90;;;;;;10340379;28;20856;-73
2024/03/15 11:13:07;;;;;;;2.50;2.23;;;19.40;35.60;;;;;;10334818;28;20223;-73
2024/03/15 11:18:10;;;;;;;2.40;2.20;;;19.50;36.60;;;;;;10347994;28;20241;-73
2024/03/15 11:23:14;;;;;;;3.10;2.30;;;19.80;36.30;;;;;;10353968;28;20288;-73
2024/03/15 11:28:19;;;;;;;2.20;2.00;;;19.90;36.40;;;;;;10368066;28;21177;-71
2024/03/15 11:33:23;;;;;;;2.60;1.90;;;20.10;37.20;;;;;;10338593;28;20245;-73
2024/03/15 11:38:26;;;;;;;2.20;2.00;;;20.20;35.30;;;;;;10367560;28;20221;-73
2024/03/15 11:43:30;;;;;;;2.83;2.20;;;20.30;34.40;;;;;;10369043;28;20313;-73
2024/03/15 11:48:33;;;;;;;3.37;2.37;;;20.30;34.70;;;;;;10368070;28;20596;-73
2024/03/15 11:53:37;;;;;;;2.00;1.80;;;20.30;34.80;;;;;;10379913;28;20324;-73
2024/03/15 11:58:41;;;;;;;2.00;1.90;;;20.30;34.50;;;;;;10378883;28;20718;-73
2024/03/15 12:03:45;;;;;;;2.20;2.00;;;20.40;33.90;;;;;;10372846;28;20791;-73
2024/03/15 12:08:48;;;;;;;2.20;2.00;;;20.50;33.80;;;;;;10365315;28;20236;-73
2024/03/15 12:13:53;;;;;;;2.00;1.90;;;20.50;34.30;;;;;;10380818;28;20649;-73
2024/03/15 12:18:58;;;;;;;2.43;1.97;;;20.60;33.70;;;;;;10378805;28;20277;-72
2024/03/15 12:24:01;;;;;;;4.30;2.20;;;20.70;33.60;;;;;;10374049;28;20573;-72
2024/03/15 12:29:05;;;;;;;2.30;2.00;;;20.80;33.30;;;;;;10365703;28;20232;-72
2024/03/15 12:34:09;;;;;;;2.57;2.37;;;20.80;33.60;;;;;;10365343;28;20230;-72
2024/03/15 12:39:12;;;;;;;2.57;2.37;;;20.90;33.30;;;;;;10378306;28;20434;-72
2024/03/15 12:44:16;;;;;;;2.60;2.40;;;21.00;32.60;;;;;;10378584;28;20230;-72
2024/03/15 12:49:19;;;;;;;3.10;2.40;;;21.00;32.50;;;;;;10381050;28;20254;-72
2024/03/15 12:54:22;;;;;;;2.30;2.10;;;21.00;32.70;;;;;;10366255;28;20316;-73
2024/03/15 12:59:26;;;;;;;2.40;2.20;;;21.10;32.60;;;;;;10370432;28;20261;-72
2024/03/15 13:04:29;;;;;;;3.63;2.07;;;21.00;32.30;;;;;;10380751;28;20587;-74
2024/03/15 13:09:33;;;;;;;2.47;2.27;;;20.90;32.00;;;;;;10366573;28;20233;-73
2024/03/15 13:14:36;;;;;;;2.20;2.00;;;20.90;32.00;;;;;;10368185;28;20234;-73
2024/03/15 13:19:40;;;;;;;1.90;1.80;;;20.80;32.10;;;;;;10373027;28;20236;-73
2024/03/15 13:24:43;;;;;;;2.00;1.80;;;20.80;32.10;;;;;;10385066;28;20244;-73
2024/03/15 13:29:47;;;;;;;2.00;1.80;;;20.80;31.90;;;;;;10370780;28;20234;-73
2024/03/15 13:34:50;;;;;;;3.37;1.97;;;20.90;32.10;;;;;;10384311;28;20226;-73
2024/03/15 13:39:53;;;;;;;1.90;1.80;;;20.90;32.20;;;;;;10384099;28;20233;-73
2024/03/15 13:44:57;;;;;;;2.67;2.10;;;20.90;31.60;;;;;;10385072;28;20244;-73
2024/03/15 13:50:01;;;;;;;3.93;2.10;;;20.90;31.00;;;;;;10393056;28;20283;-73
2024/03/15 13:55:08;;;;;;;2.40;2.20;;;20.80;31.40;;;;;;10387090;28;20235;-73
2024/03/15 14:00:31;;;;;;;2.20;2.00;;;20.80;31.40;;;;;;10373003;28;20250;-73
2024/03/15 14:05:37;;;;;;;2.20;2.00;;;20.80;31.10;;;;;;10382860;28;20249;-73
2024/03/15 14:10:43;;;;;;;2.33;2.00;;;20.70;31.10;;;;;;10381342;28;20587;-73
2024/03/15 14:15:47;;;;;;;2.70;2.20;;;20.70;31.30;;;;;;10375961;28;20238;-72
2024/03/15 14:20:50;;;;;;;3.27;2.30;;;20.70;31.20;;;;;;10388806;28;20233;-73
2024/03/15 14:25:55;;;;;;;2.43;1.87;;;20.60;31.30;;;;;;10384688;28;20873;-73
2024/03/15 14:31:00;;;;;;;3.37;3.07;;;20.60;31.30;;;;;;10385539;28;20580;-73
2024/03/15 14:36:04;;;;;;;3.90;2.13;;;20.60;31.10;;;;;;10386838;28;20328;-70
2024/03/15 14:41:07;;;;;;;2.73;1.80;;;20.50;31.60;;;;;;10382125;28;20236;-73
2024/03/15 14:46:11;;;;;;;1.73;1.63;;;20.10;31.30;;;;;;10351351;28;20823;-72
2024/03/15 14:51:15;;;;;;;2.37;1.60;;;19.60;31.30;;;;;;10336988;28;20822;-73
2024/03/15 14:56:18;;;;;;;1.90;1.30;;;19.10;32.00;;;;;;10335787;28;20234;-73
2024/03/15 15:01:23;;;;;;;1.27;1.10;;;18.60;32.50;;;;;;10337913;28;20235;-73
2024/03/15 15:06:26;;;;;;;1.63;1.50;;;18.30;33.20;;;;;;10337205;28;20234;-73
2024/03/15 15:11:30;;;;;;;2.73;1.70;;;18.00;33.90;;;;;;10330103;28;20226;-73
2024/03/15 15:16:33;;;;;;;2.03;1.60;;;17.70;34.50;;;;;;10335133;28;20226;-73
2024/03/15 15:21:38;;;;;;;1.87;1.73;;;17.40;34.20;;;;;;10345929;28;20233;-73
2024/03/15 15:26:42;;;;;;;3.73;2.30;;;17.10;35.10;;;;;;10385192;28;20798;-73
2024/03/15 15:31:45;;;;;;;2.27;1.70;;;16.90;35.50;;;;;;10357885;28;20222;-73
2024/03/15 15:36:50;;;;;;;1.60;1.50;;;16.70;35.70;;;;;;10352420;28;20234;-73
2024/03/15 15:41:54;;;;;;;1.20;1.10;;;16.50;35.90;;;;;;10352239;28;21078;-72
2024/03/15 15:46:57;;;;;;;3.20;1.47;;;16.40;36.30;;;;;;10354125;28;20246;-72
2024/03/15 15:52:04;;;;;;;1.43;1.20;;;16.40;36.50;;;;;;10361482;28;20226;-73
2024/03/15 15:57:07;;;;;;;1.50;1.20;;;16.40;36.70;;;;;;10346807;28;20238;-72
2024/03/15 16:02:10;;;;;;;1.30;1.20;;;16.50;36.90;;;;;;10320478;28;20245;-73
2024/03/15 16:07:14;;;;;;;1.53;1.20;;;16.60;37.00;;;;;;10347738;28;20245;-73
2024/03/15 16:12:17;;;;;;;2.43;1.50;;;16.60;36.60;;;;;;10334901;28;21410;-73
2024/03/15 16:17:21;;;;;;;1.73;1.57;;;16.60;36.50;;;;;;10351550;28;20238;-73
2024/03/15 16:22:24;;;;;;;1.60;1.50;;;16.60;36.80;;;;;;10359132;28;20230;-73
2024/03/15 16:27:27;;;;;;;7.90;5.70;;;16.60;36.90;;;;;;10355566;28;20352;-73
2024/03/15 16:32:31;;;;;;;2.97;2.40;;;16.50;36.90;;;;;;10374322;28;20333;-73
2024/03/15 16:37:34;;;;;;;2.20;2.00;;;16.40;37.30;;;;;;10353887;28;20227;-73
2024/03/15 16:42:38;;;;;;;2.83;2.53;;;16.20;37.90;;;;;;10350218;28;20669;-73
2024/03/15 16:47:41;;;;;;;2.70;1.90;;;15.90;38.40;;;;;;10339127;28;20866;-73
2024/03/15 16:52:45;;;;;;;2.07;1.70;;;15.60;38.80;;;;;;10342721;28;20250;-72
2024/03/15 16:57:48;;;;;;;3.10;2.03;;;15.50;38.80;;;;;;10341621;28;20313;-72
2024/03/15 17:02:51;;;;;;;4.53;2.77;;;15.40;39.30;;;;;;10343754;28;20225;-73
2024/03/15 17:07:55;;;;;;;6.43;4.43;;;15.40;40.00;;;;;;10331230;28;20238;-73
2024/03/15 17:12:58;;;;;;;5.30;3.70;;;15.50;39.30;;;;;;10356789;28;20222;-73
2024/03/15 17:18:02;;;;;;;4.90;3.57;;;15.60;39.30;;;;;;10349060;28;20365;-73
2024/03/15 17:23:05;;;;;;;4.33;3.67;;;15.70;39.50;;;;;;10330683;28;20223;-73
2024/03/15 17:28:08;;;;;;;17.10;13.40;;;15.80;39.40;;;;;;10325427;28;20230;-73
2024/03/15 17:33:12;;;;;;;7.67;6.87;;;15.90;39.20;;;;;;10324999;28;20242;-73
2024/03/15 17:38:15;;;;;;;5.83;5.23;;;16.00;39.00;;;;;;10333776;28;20234;-73
2024/03/15 17:43:19;;;;;;;10.33;9.07;;;15.90;38.80;;;;;;10336029;28;20237;-72
2024/03/15 17:48:22;;;;;;;10.57;7.80;;;15.90;38.80;;;;;;10333461;28;20603;-73
2024/03/15 17:53:26;;;;;;;8.10;5.97;;;15.80;38.90;;;;;;10322763;28;20241;-73
2024/03/15 17:58:29;;;;;;;6.33;5.40;;;15.70;38.90;;;;;;10335987;28;20249;-73
2024/03/15 18:03:32;;;;;;;7.43;4.90;;;15.70;38.90;;;;;;10341608;28;20226;-73
2024/03/15 18:08:36;;;;;;;6.73;6.03;;;15.60;38.80;;;;;;10334272;28;20253;-73
2024/03/15 18:13:39;;;;;;;12.07;10.87;;;15.60;39.00;;;;;;10345112;28;20227;-73
2024/03/15 18:18:42;;;;;;;13.23;12.13;;;15.50;39.00;;;;;;10350941;28;20232;-73
2024/03/15 18:23:47;;;;;;;6.90;5.90;;;15.40;39.00;;;;;;10330114;28;20511;-73
2024/03/15 18:28:51;;;;;;;6.93;5.80;;;15.30;39.00;;;;;;10343644;28;20226;-73
2024/03/15 18:33:54;;;;;;;5.33;4.10;;;15.20;39.30;;;;;;10332828;28;20222;-73
2024/03/15 18:38:58;;;;;;;5.13;3.93;;;15.20;39.30;;;;;;10344313;28;20297;-73
2024/03/15 18:44:01;;;;;;;3.27;2.90;;;15.20;39.30;;;;;;10339875;28;20724;-73
2024/03/15 18:49:04;;;;;;;2.93;2.73;;;15.30;39.20;;;;;;10327408;28;20816;-72
2024/03/15 18:54:08;;;;;;;2.83;2.60;;;15.30;39.10;;;;;;10345270;28;20238;-72
2024/03/15 18:59:11;;;;;;;2.80;2.50;;;15.30;38.90;;;;;;10359848;28;20405;-73
2024/03/15 19:04:15;;;;;;;2.93;2.73;;;15.30;38.60;;;;;;10363735;28;20234;-73
2024/03/15 19:09:18;;;;;;;3.63;3.20;;;15.30;38.60;;;;;;10362015;28;20258;-73
2024/03/15 19:14:23;;;;;;;3.67;3.00;;;15.30;38.60;;;;;;10356377;28;20236;-73
2024/03/15 19:19:26;;;;;;;4.70;3.87;;;15.30;38.60;;;;;;10366029;28;20229;-73
2024/03/15 19:24:30;;;;;;;5.23;4.73;;;15.20;38.50;;;;;;10380539;28;20222;-73
2024/03/15 19:29:34;;;;;;;4.60;4.20;;;15.10;38.70;;;;;;10382733;28;20241;-73
2024/03/15 19:34:37;;;;;;;5.30;4.80;;;15.10;38.50;;;;;;10375836;28;20242;-72
2024/03/15 19:39:40;;;;;;;6.50;5.90;;;15.00;38.30;;;;;;10340513;28;20326;-72
2024/03/15 19:44:44;;;;;;;6.90;6.23;;;14.90;38.40;;;;;;10339359;28;20215;-73
2024/03/15 19:49:47;;;;;;;6.60;6.00;;;14.80;38.50;;;;;;10335567;28;20226;-72
2024/03/15 19:54:51;;;;;;;7.77;7.00;;;14.80;38.60;;;;;;10341878;28;20219;-73
2024/03/15 19:59:54;;;;;;;8.13;7.43;;;14.70;38.50;;;;;;10337563;28;20535;-72
2024/03/15 20:04:58;;;;;;;8.30;7.50;;;14.70;38.80;;;;;;10340523;28;20219;-73
2024/03/15 20:10:02;;;;;;;8.00;7.20;;;14.60;38.40;;;;;;10335341;28;20306;-72
2024/03/15 20:15:05;;;;;;;8.70;7.80;;;14.50;38.50;;;;;;10342673;28;20613;-73
2024/03/15 20:20:10;;;;;;;8.20;7.37;;;14.40;38.70;;;;;;10331931;28;20230;-73
2024/03/15 20:25:14;;;;;;;9.27;8.47;;;14.30;39.00;;;;;;10336023;28;20225;-73
2024/03/15 20:30:19;;;;;;;8.37;7.67;;;14.20;39.20;;;;;;10357731;28;20269;-72
2024/03/15 20:35:25;;;;;;;5.73;5.23;;;14.10;39.40;;;;;;10352380;28;20230;-72
2024/03/15 20:40:29;;;;;;;5.03;4.60;;;13.90;39.50;;;;;;10359376;28;20264;-73
2024/03/15 20:45:32;;;;;;;5.20;4.70;;;13.90;39.50;;;;;;10325929;28;20928;-73
2024/03/15 20:50:36;;;;;;;5.77;5.07;;;13.90;39.50;;;;;;10358719;28;20230;-72
2024/03/15 20:55:41;;;;;;;5.20;4.80;;;13.90;39.50;;;;;;10355336;28;20233;-73
2024/03/15 21:00:44;;;;;;;5.93;5.40;;;13.90;39.60;;;;;;10355746;28;20293;-73
2024/03/15 21:05:48;;;;;;;4.87;4.47;;;14.00;39.70;;;;;;10358392;28;20284;-72
2024/03/15 21:10:53;;;;;;;6.07;5.57;;;14.00;39.50;;;;;;10348174;28;20241;-73
2024/03/15 21:15:57;;;;;;;5.80;5.27;;;14.00;39.50;;;;;;10364921;28;20244;-73
2024/03/15 21:21:02;;;;;;;5.43;5.03;;;14.00;39.60;;;;;;10367026;28;20230;-73
2024/03/15 21:26:05;;;;;;;7.70;7.00;;;13.90;39.50;;;;;;10369145;28;20945;-72
2024/03/15 21:31:09;;;;;;;7.13;6.50;;;13.90;39.50;;;;;;10337427;28;20230;-72
2024/03/15 21:36:12;;;;;;;7.53;6.83;;;13.90;39.50;;;;;;10356345;28;20244;-72
2024/03/15 21:41:17;;;;;;;7.83;7.07;;;13.90;39.50;;;;;;10382397;28;20607;-73
2024/03/15 21:46:24;;;;;;;6.20;5.70;;;13.90;39.40;;;;;;10375831;28;20230;-72
2024/03/15 21:51:27;;;;;;;7.10;6.50;;;13.90;39.50;;;;;;10382139;28;20237;-72
2024/03/15 21:56:30;;;;;;;7.00;6.40;;;13.80;39.30;;;;;;10343464;28;20312;-72
2024/03/15 22:01:35;;;;;;;6.60;6.10;;;13.80;39.30;;;;;;10339559;28;20663;-72
2024/03/15 22:06:41;;;;;;;6.60;6.00;;;13.80;39.10;;;;;;10345379;28;20223;-72
2024/03/15 22:11:44;;;;;;;5.83;5.33;;;13.70;39.20;;;;;;10341379;28;20783;-73
2024/03/15 22:16:48;;;;;;;6.53;5.93;;;13.60;39.30;;;;;;10376361;28;20833;-72
2024/03/15 22:21:51;;;;;;;6.30;5.80;;;13.60;39.60;;;;;;10373960;28;20708;-73
2024/03/15 22:26:54;;;;;;;8.50;7.37;;;13.60;39.70;;;;;;10388615;28;20222;-72
2024/03/15 22:31:58;;;;;;;12.50;10.60;;;13.60;39.90;;;;;;10348570;28;20657;-72
2024/03/15 22:37:01;;;;;;;13.37;11.00;;;13.50;40.20;;;;;;10348536;28;20245;-72
2024/03/15 22:42:05;;;;;;;7.13;6.53;;;13.30;40.70;;;;;;10375057;28;20305;-72
2024/03/15 22:47:08;;;;;;;6.90;6.30;;;13.20;41.10;;;;;;10353805;28;20659;-72
2024/03/15 22:52:11;;;;;;;6.70;5.60;;;13.10;41.50;;;;;;10354430;28;21156;-72
2024/03/15 22:57:16;;;;;;;6.17;5.60;;;13.00;41.80;;;;;;10343456;28;20241;-72
2024/03/15 23:02:20;;;;;;;6.20;5.10;;;13.00;42.10;;;;;;10390897;28;20233;-72
2024/03/15 23:07:23;;;;;;;5.70;5.10;;;13.00;42.60;;;;;;10373127;28;20783;-72
2024/03/15 23:12:27;;;;;;;8.00;5.43;;;12.90;42.50;;;;;;10360670;28;21125;-72
2024/03/15 23:17:31;;;;;;;7.47;5.60;;;12.80;42.40;;;;;;10362271;28;20288;-72
2024/03/15 23:22:38;;;;;;;7.10;5.37;;;12.80;43.10;;;;;;10366711;28;20230;-72
2024/03/15 23:27:41;;;;;;;5.77;5.10;;;12.90;42.50;;;;;;10365880;28;20237;-72
2024/03/15 23:32:44;;;;;;;6.53;4.93;;;12.90;42.50;;;;;;10383555;28;20786;-72
2024/03/15 23:37:50;;;;;;;5.17;4.67;;;12.90;42.50;;;;;;10380225;28;20345;-72
2024/03/15 23:42:53;;;;;;;5.60;5.03;;;13.00;42.60;;;;;;10385626;28;20222;-72
2024/03/15 23:47:57;;;;;;;5.83;4.70;;;13.00;42.60;;;;;;10367259;28;20980;-72
2024/03/15 23:53:00;;;;;;;5.00;4.60;;;13.00;42.60;;;;;;10344643;28;20273;-73
2024/03/15 23:58:04;;;;;;;5.17;4.70;;;13.10;42.70;;;;;;10351671;28;20345;-72
